UAL531 KDEN-KLAX
Flight info
| Callsign | UAL531 |
|---|---|
| Flight time | 2h 22m |
| Altitude | 36000 |
| Route | BAYLR6 TEHRU JASSE Q90 DNERO ANJLL4 |
| Aircraft | B738/M-SDE2E3FGHIRWXY/LB1 |
Departure
| Time | 2026-04-24 23:59 |
|---|---|
| Airport | Denver International Airport (KDEN) |
Arrival
| Time | 2026-04-25 02:21 |
|---|---|
| Airport | Los Angeles International Airport (KLAX) |
| Time | Latitude | Longitude | Altitude | Speed | Heading |
|---|---|---|---|---|---|
| 2026-04-24 23:35 | 39.85856 | -104.66627 | 5383 ft | 0 kts | 357° |
| 2026-04-24 23:48 | 39.85848 | -104.66626 | 5382 ft | 3 kts | 8° |
| 2026-04-24 23:49 | 39.85837 | -104.66631 | 5381 ft | 3 kts | 75° |
| 2026-04-24 23:49 | 39.85836 | -104.66655 | 5383 ft | 3 kts | 94° |
| 2026-04-24 23:49 | 39.85837 | -104.66666 | 5383 ft | 0 kts | 91° |
| 2026-04-24 23:52 | 39.85836 | -104.66605 | 5380 ft | 13 kts | 90° |
| 2026-04-24 23:52 | 39.85828 | -104.66507 | 5385 ft | 4 kts | 131° |
| 2026-04-24 23:53 | 39.85774 | -104.66491 | 5387 ft | 14 kts | 177° |
| 2026-04-24 23:53 | 39.85675 | -104.66521 | 5383 ft | 15 kts | 233° |
| 2026-04-24 23:53 | 39.85659 | -104.66701 | 5385 ft | 24 kts | 269° |
| 2026-04-24 23:53 | 39.85658 | -104.66902 | 5382 ft | 24 kts | 269° |
| 2026-04-24 23:54 | 39.85662 | -104.67128 | 5380 ft | 26 kts | 271° |
| 2026-04-24 23:54 | 39.85663 | -104.67280 | 5377 ft | 18 kts | 270° |
| 2026-04-24 23:54 | 39.85664 | -104.67489 | 5377 ft | 21 kts | 270° |
| 2026-04-24 23:54 | 39.85666 | -104.67699 | 5378 ft | 15 kts | 270° |
| 2026-04-24 23:55 | 39.85667 | -104.67825 | 5378 ft | 19 kts | 271° |
| 2026-04-24 23:55 | 39.85669 | -104.68026 | 5378 ft | 26 kts | 271° |
| 2026-04-24 23:55 | 39.85686 | -104.68233 | 5376 ft | 22 kts | 274° |
| 2026-04-24 23:55 | 39.85705 | -104.68371 | 5371 ft | 22 kts | 310° |
| 2026-04-24 23:56 | 39.85873 | -104.68399 | 5369 ft | 26 kts | 0° |
| 2026-04-24 23:56 | 39.86014 | -104.68397 | 5366 ft | 19 kts | 1° |
| 2026-04-24 23:56 | 39.86179 | -104.68392 | 5362 ft | 29 kts | 1° |
| 2026-04-24 23:56 | 39.86345 | -104.68391 | 5362 ft | 19 kts | 0° |
| 2026-04-24 23:57 | 39.86426 | -104.68486 | 5364 ft | 17 kts | 276° |
| 2026-04-24 23:57 | 39.86429 | -104.68606 | 5365 ft | 17 kts | 271° |
| 2026-04-24 23:57 | 39.86431 | -104.68673 | 5367 ft | 10 kts | 278° |
| 2026-04-24 23:57 | 39.86475 | -104.68715 | 5365 ft | 13 kts | 343° |
| 2026-04-24 23:58 | 39.86497 | -104.68719 | 5365 ft | 0 kts | 355° |
| 2026-04-24 23:58 | 39.86621 | -104.68719 | 5364 ft | 53 kts | 1° |
| 2026-04-24 23:58 | 39.87247 | -104.68714 | 5357 ft | 124 kts | 0° |
| 2026-04-24 23:59 | 39.88312 | -104.68711 | 5412 ft | 177 kts | 1° |
| 2026-04-24 23:59 | 39.89607 | -104.68749 | 6100 ft | 190 kts | 356° |
| 2026-04-24 23:59 | 39.90879 | -104.69153 | 6666 ft | 187 kts | 317° |
| 2026-04-24 23:59 | 39.91559 | -104.70486 | 7440 ft | 178 kts | 279° |
| 2026-04-25 00:00 | 39.91420 | -104.72073 | 8134 ft | 181 kts | 247° |
| 2026-04-25 00:00 | 39.90632 | -104.73367 | 8786 ft | 186 kts | 230° |
| 2026-04-25 00:00 | 39.89693 | -104.74601 | 9178 ft | 201 kts | 230° |
| 2026-04-25 00:00 | 39.88650 | -104.75965 | 9359 ft | 222 kts | 229° |
| 2026-04-25 00:01 | 39.87524 | -104.77433 | 9572 ft | 241 kts | 229° |
| 2026-04-25 00:01 | 39.86304 | -104.79018 | 9892 ft | 253 kts | 228° |
| 2026-04-25 00:01 | 39.85055 | -104.80637 | 9977 ft | 255 kts | 228° |
| 2026-04-25 00:01 | 39.83786 | -104.82284 | 9982 ft | 259 kts | 228° |
| 2026-04-25 00:02 | 39.82516 | -104.83932 | 9973 ft | 256 kts | 228° |
| 2026-04-25 00:02 | 39.81259 | -104.85565 | 9956 ft | 255 kts | 228° |
| 2026-04-25 00:02 | 39.80009 | -104.87186 | 9962 ft | 254 kts | 228° |
| 2026-04-25 00:02 | 39.79183 | -104.88260 | 9956 ft | 253 kts | 228° |
| 2026-04-25 00:03 | 39.77961 | -104.89900 | 9956 ft | 251 kts | 234° |
| 2026-04-25 00:03 | 39.77189 | -104.91899 | 10145 ft | 248 kts | 253° |
| 2026-04-25 00:03 | 39.76693 | -104.94082 | 10541 ft | 255 kts | 255° |
| 2026-04-25 00:03 | 39.76226 | -104.96292 | 11139 ft | 257 kts | 255° |
| 2026-04-25 00:04 | 39.75728 | -104.98619 | 11328 ft | 280 kts | 255° |
| 2026-04-25 00:04 | 39.75175 | -105.01161 | 11530 ft | 304 kts | 254° |
| 2026-04-25 00:04 | 39.74576 | -105.03667 | 11698 ft | 326 kts | 250° |
| 2026-04-25 00:04 | 39.73396 | -105.07404 | 11892 ft | 355 kts | 247° |
| 2026-04-25 00:05 | 39.72727 | -105.09379 | 12053 ft | 365 kts | 247° |
| 2026-04-25 00:05 | 39.71690 | -105.12427 | 12554 ft | 372 kts | 246° |
| 2026-04-25 00:05 | 39.70648 | -105.15523 | 13178 ft | 376 kts | 247° |
| 2026-04-25 00:05 | 39.69615 | -105.18637 | 13915 ft | 374 kts | 247° |
| 2026-04-25 00:06 | 39.68586 | -105.21766 | 14454 ft | 378 kts | 246° |
| 2026-04-25 00:06 | 39.67564 | -105.24874 | 15057 ft | 381 kts | 246° |
| 2026-04-25 00:06 | 39.66518 | -105.28056 | 15561 ft | 386 kts | 246° |
| 2026-04-25 00:06 | 39.65459 | -105.31275 | 16185 ft | 387 kts | 246° |
| 2026-04-25 00:07 | 39.64399 | -105.34490 | 16770 ft | 390 kts | 246° |
| 2026-04-25 00:07 | 39.63319 | -105.37758 | 17249 ft | 395 kts | 246° |
| 2026-04-25 00:07 | 39.62238 | -105.41036 | 17924 ft | 395 kts | 246° |
| 2026-04-25 00:07 | 39.61150 | -105.44336 | 18394 ft | 400 kts | 246° |
| 2026-04-25 00:08 | 39.60056 | -105.47646 | 19048 ft | 398 kts | 246° |
| 2026-04-25 00:08 | 39.58959 | -105.50957 | 19460 ft | 403 kts | 247° |
| 2026-04-25 00:08 | 39.57840 | -105.54320 | 19938 ft | 406 kts | 247° |
| 2026-04-25 00:08 | 39.56715 | -105.57691 | 20402 ft | 409 kts | 247° |
| 2026-04-25 00:09 | 39.55582 | -105.61084 | 20965 ft | 408 kts | 247° |
| 2026-04-25 00:09 | 39.54521 | -105.64453 | 21419 ft | 412 kts | 250° |
| 2026-04-25 00:09 | 39.53535 | -105.67955 | 21848 ft | 415 kts | 251° |
| 2026-04-25 00:09 | 39.52586 | -105.71479 | 22430 ft | 414 kts | 251° |
| 2026-04-25 00:10 | 39.51637 | -105.75022 | 22773 ft | 418 kts | 251° |
| 2026-04-25 00:10 | 39.50672 | -105.78586 | 23182 ft | 421 kts | 251° |
| 2026-04-25 00:10 | 39.49689 | -105.82177 | 23556 ft | 423 kts | 251° |
| 2026-04-25 00:10 | 39.48696 | -105.85770 | 23893 ft | 424 kts | 251° |
| 2026-04-25 00:11 | 39.47695 | -105.89371 | 24293 ft | 425 kts | 251° |
| 2026-04-25 00:11 | 39.46694 | -105.92959 | 24753 ft | 424 kts | 251° |
| 2026-04-25 00:11 | 39.45693 | -105.96541 | 25161 ft | 423 kts | 251° |
| 2026-04-25 00:11 | 39.44685 | -106.00143 | 25527 ft | 425 kts | 251° |
| 2026-04-25 00:12 | 39.43677 | -106.03738 | 25920 ft | 425 kts | 251° |
| 2026-04-25 00:12 | 39.42669 | -106.07335 | 26312 ft | 425 kts | 251° |
| 2026-04-25 00:12 | 39.41673 | -106.10882 | 26642 ft | 426 kts | 251° |
| 2026-04-25 00:12 | 39.40661 | -106.14483 | 26993 ft | 426 kts | 251° |
| 2026-04-25 00:13 | 39.39649 | -106.18075 | 27431 ft | 424 kts | 251° |
| 2026-04-25 00:13 | 39.38643 | -106.21643 | 27977 ft | 420 kts | 251° |
| 2026-04-25 00:13 | 39.37647 | -106.25171 | 28549 ft | 415 kts | 252° |
| 2026-04-25 00:13 | 39.36663 | -106.28652 | 29142 ft | 411 kts | 252° |
| 2026-04-25 00:14 | 39.35688 | -106.32106 | 29627 ft | 408 kts | 252° |
| 2026-04-25 00:14 | 39.34716 | -106.35541 | 30090 ft | 406 kts | 252° |
| 2026-04-25 00:14 | 39.33748 | -106.38958 | 30444 ft | 404 kts | 251° |
| 2026-04-25 00:14 | 39.32783 | -106.42368 | 30720 ft | 404 kts | 252° |
| 2026-04-25 00:15 | 39.31821 | -106.45759 | 31015 ft | 403 kts | 251° |
| 2026-04-25 00:15 | 39.30851 | -106.49167 | 31266 ft | 402 kts | 252° |
| 2026-04-25 00:15 | 39.29897 | -106.52518 | 31524 ft | 403 kts | 251° |
| 2026-04-25 00:15 | 39.28932 | -106.55905 | 31819 ft | 402 kts | 251° |
| 2026-04-25 00:16 | 39.27967 | -106.59283 | 32158 ft | 400 kts | 251° |
| 2026-04-25 00:16 | 39.27004 | -106.62658 | 32361 ft | 400 kts | 251° |
| 2026-04-25 00:16 | 39.26039 | -106.66032 | 32618 ft | 400 kts | 251° |
| 2026-04-25 00:16 | 39.25076 | -106.69391 | 32984 ft | 398 kts | 251° |
| 2026-04-25 00:17 | 39.23986 | -106.72663 | 33346 ft | 399 kts | 243° |
| 2026-04-25 00:17 | 39.22390 | -106.75603 | 33683 ft | 401 kts | 237° |
| 2026-04-25 00:17 | 39.20705 | -106.78468 | 33980 ft | 400 kts | 237° |
| 2026-04-25 00:17 | 39.19042 | -106.81297 | 34200 ft | 401 kts | 237° |
| 2026-04-25 00:18 | 39.17362 | -106.84168 | 34381 ft | 402 kts | 237° |
| 2026-04-25 00:18 | 39.15680 | -106.87053 | 34603 ft | 403 kts | 237° |
| 2026-04-25 00:18 | 39.14000 | -106.89942 | 34873 ft | 402 kts | 237° |
| 2026-04-25 00:18 | 39.12323 | -106.92829 | 35083 ft | 402 kts | 237° |
| 2026-04-25 00:19 | 39.10649 | -106.95713 | 35240 ft | 403 kts | 237° |
| 2026-04-25 00:19 | 39.08968 | -106.98609 | 35386 ft | 404 kts | 237° |
| 2026-04-25 00:19 | 39.07286 | -107.01506 | 35616 ft | 403 kts | 238° |
| 2026-04-25 00:19 | 39.05611 | -107.04388 | 35838 ft | 402 kts | 238° |
| 2026-04-25 00:20 | 39.02225 | -107.10211 | 35807 ft | 406 kts | 238° |
| 2026-04-25 00:20 | 38.98867 | -107.15969 | 35778 ft | 404 kts | 238° |
| 2026-04-25 00:21 | 38.95489 | -107.21751 | 35766 ft | 403 kts | 238° |
| 2026-04-25 00:21 | 38.92122 | -107.27506 | 35759 ft | 403 kts | 238° |
| 2026-04-25 00:22 | 38.88754 | -107.33252 | 35762 ft | 402 kts | 238° |
| 2026-04-25 00:22 | 38.85395 | -107.38973 | 35755 ft | 401 kts | 238° |
| 2026-04-25 00:23 | 38.82052 | -107.44658 | 35763 ft | 402 kts | 238° |
| 2026-04-25 00:23 | 38.78682 | -107.50375 | 35791 ft | 400 kts | 238° |
| 2026-04-25 00:24 | 38.75319 | -107.56074 | 35759 ft | 401 kts | 238° |
| 2026-04-25 00:24 | 38.71938 | -107.61792 | 35775 ft | 403 kts | 237° |
| 2026-04-25 00:25 | 38.68550 | -107.67512 | 35795 ft | 403 kts | 237° |
| 2026-04-25 00:25 | 38.65154 | -107.73234 | 35820 ft | 404 kts | 237° |
| 2026-04-25 00:26 | 38.61775 | -107.78917 | 35847 ft | 404 kts | 237° |
| 2026-04-25 00:26 | 38.58367 | -107.84640 | 35869 ft | 405 kts | 237° |
| 2026-04-25 00:27 | 38.54953 | -107.90363 | 35862 ft | 405 kts | 237° |
| 2026-04-25 00:27 | 38.51540 | -107.96074 | 35865 ft | 404 kts | 237° |
| 2026-04-25 00:28 | 38.48117 | -108.01791 | 35855 ft | 404 kts | 237° |
| 2026-04-25 00:28 | 38.44697 | -108.07493 | 35847 ft | 404 kts | 237° |
| 2026-04-25 00:29 | 38.41276 | -108.13188 | 35811 ft | 404 kts | 237° |
| 2026-04-25 00:29 | 38.37857 | -108.18869 | 35798 ft | 404 kts | 237° |
| 2026-04-25 00:30 | 38.34453 | -108.24514 | 35795 ft | 403 kts | 237° |
| 2026-04-25 00:30 | 38.31025 | -108.30191 | 35778 ft | 404 kts | 237° |
| 2026-04-25 00:31 | 38.27589 | -108.35870 | 35780 ft | 405 kts | 237° |
| 2026-04-25 00:31 | 38.24152 | -108.41542 | 35775 ft | 404 kts | 237° |
| 2026-04-25 00:32 | 38.20718 | -108.47197 | 35778 ft | 404 kts | 237° |
| 2026-04-25 00:32 | 38.17282 | -108.52847 | 35773 ft | 403 kts | 237° |
| 2026-04-25 00:33 | 38.13848 | -108.58482 | 35770 ft | 403 kts | 237° |
| 2026-04-25 00:33 | 38.10420 | -108.64100 | 35773 ft | 402 kts | 237° |
| 2026-04-25 00:34 | 38.06991 | -108.69710 | 35773 ft | 402 kts | 237° |
| 2026-04-25 00:34 | 38.03558 | -108.75316 | 35778 ft | 402 kts | 237° |
| 2026-04-25 00:35 | 38.00146 | -108.80879 | 35785 ft | 402 kts | 237° |
| 2026-04-25 00:35 | 37.96712 | -108.86467 | 35784 ft | 402 kts | 237° |
| 2026-04-25 00:36 | 37.93276 | -108.92050 | 35795 ft | 401 kts | 237° |
| 2026-04-25 00:36 | 37.89841 | -108.97622 | 35792 ft | 401 kts | 237° |
| 2026-04-25 00:37 | 37.86401 | -109.03191 | 35799 ft | 401 kts | 237° |
| 2026-04-25 00:37 | 37.82968 | -109.08741 | 35795 ft | 401 kts | 237° |
| 2026-04-25 00:38 | 37.79527 | -109.14292 | 35801 ft | 400 kts | 237° |
| 2026-04-25 00:38 | 37.76095 | -109.19821 | 35818 ft | 400 kts | 237° |
| 2026-04-25 00:39 | 37.72665 | -109.25338 | 35834 ft | 399 kts | 237° |
| 2026-04-25 00:39 | 37.69256 | -109.30810 | 35863 ft | 398 kts | 237° |
| 2026-04-25 00:40 | 37.65825 | -109.36311 | 35868 ft | 397 kts | 237° |
| 2026-04-25 00:40 | 37.62405 | -109.41784 | 35887 ft | 397 kts | 237° |
| 2026-04-25 00:41 | 37.58980 | -109.47256 | 35887 ft | 396 kts | 237° |
| 2026-04-25 00:41 | 37.55565 | -109.52703 | 35892 ft | 396 kts | 237° |
| 2026-04-25 00:42 | 37.52145 | -109.58150 | 35881 ft | 396 kts | 237° |
| 2026-04-25 00:42 | 37.48753 | -109.63541 | 35864 ft | 395 kts | 237° |
| 2026-04-25 00:43 | 37.45341 | -109.68956 | 35826 ft | 395 kts | 237° |
| 2026-04-25 00:43 | 37.41931 | -109.74359 | 35803 ft | 393 kts | 237° |
| 2026-04-25 00:44 | 37.38525 | -109.79745 | 35767 ft | 393 kts | 237° |
| 2026-04-25 00:44 | 37.35127 | -109.85114 | 35751 ft | 392 kts | 237° |
| 2026-04-25 00:45 | 37.31729 | -109.90473 | 35741 ft | 391 kts | 237° |
| 2026-04-25 00:45 | 37.28340 | -109.95807 | 35747 ft | 390 kts | 237° |
| 2026-04-25 00:46 | 37.24949 | -110.01138 | 35737 ft | 391 kts | 237° |
| 2026-04-25 00:47 | 37.19864 | -110.09114 | 35733 ft | 389 kts | 237° |
| 2026-04-25 00:47 | 37.16478 | -110.14415 | 35728 ft | 389 kts | 237° |
| 2026-04-25 00:48 | 37.13118 | -110.19667 | 35728 ft | 388 kts | 237° |
| 2026-04-25 00:48 | 37.09737 | -110.24944 | 35725 ft | 388 kts | 237° |
| 2026-04-25 00:49 | 37.06358 | -110.30207 | 35720 ft | 387 kts | 237° |
| 2026-04-25 00:49 | 37.02979 | -110.35464 | 35721 ft | 387 kts | 237° |
| 2026-04-25 00:50 | 36.99616 | -110.40688 | 35748 ft | 385 kts | 237° |
| 2026-04-25 00:50 | 36.96244 | -110.45918 | 35726 ft | 386 kts | 237° |
| 2026-04-25 00:51 | 36.92872 | -110.51139 | 35725 ft | 386 kts | 237° |
| 2026-04-25 00:51 | 36.89502 | -110.56349 | 35720 ft | 384 kts | 237° |
| 2026-04-25 00:52 | 36.86164 | -110.61499 | 35747 ft | 384 kts | 237° |
| 2026-04-25 00:52 | 36.82797 | -110.66690 | 35754 ft | 385 kts | 237° |
| 2026-04-25 00:53 | 36.79425 | -110.71879 | 35739 ft | 385 kts | 237° |
| 2026-04-25 00:53 | 36.76612 | -110.76203 | 35732 ft | 386 kts | 237° |
| 2026-04-25 00:54 | 36.73225 | -110.81399 | 35755 ft | 386 kts | 237° |
| 2026-04-25 00:54 | 36.69833 | -110.86595 | 35752 ft | 386 kts | 237° |
| 2026-04-25 00:55 | 36.66443 | -110.91781 | 35750 ft | 386 kts | 237° |
| 2026-04-25 00:55 | 36.63074 | -110.96927 | 35743 ft | 386 kts | 237° |
| 2026-04-25 00:56 | 36.59683 | -111.02098 | 35750 ft | 385 kts | 237° |
| 2026-04-25 00:56 | 36.56291 | -111.07263 | 35752 ft | 385 kts | 237° |
| 2026-04-25 00:57 | 36.52907 | -111.12406 | 35757 ft | 384 kts | 237° |
| 2026-04-25 00:57 | 36.49523 | -111.17543 | 35749 ft | 383 kts | 237° |
| 2026-04-25 00:58 | 36.46166 | -111.22632 | 35757 ft | 383 kts | 237° |
| 2026-04-25 00:58 | 36.42787 | -111.27747 | 35760 ft | 383 kts | 237° |
| 2026-04-25 00:59 | 36.39406 | -111.32856 | 35756 ft | 383 kts | 237° |
| 2026-04-25 00:59 | 36.36018 | -111.37968 | 35761 ft | 383 kts | 237° |
| 2026-04-25 01:00 | 36.32626 | -111.43079 | 35775 ft | 384 kts | 236° |
| 2026-04-25 01:00 | 36.29227 | -111.48192 | 35764 ft | 384 kts | 236° |
| 2026-04-25 01:01 | 36.25823 | -111.53306 | 35778 ft | 385 kts | 236° |
| 2026-04-25 01:01 | 36.22404 | -111.58435 | 35777 ft | 386 kts | 236° |
| 2026-04-25 01:02 | 36.18977 | -111.63568 | 35782 ft | 387 kts | 236° |
| 2026-04-25 01:02 | 36.15563 | -111.68673 | 35797 ft | 387 kts | 236° |
| 2026-04-25 01:03 | 36.12111 | -111.73830 | 35839 ft | 390 kts | 236° |
| 2026-04-25 01:03 | 36.08657 | -111.79011 | 35827 ft | 389 kts | 239° |
| 2026-04-25 01:04 | 36.05973 | -111.84686 | 35866 ft | 381 kts | 251° |
| 2026-04-25 01:04 | 36.04035 | -111.90781 | 35915 ft | 382 kts | 253° |
| 2026-04-25 01:05 | 36.02108 | -111.96885 | 35941 ft | 379 kts | 251° |
| 2026-04-25 01:05 | 36.00189 | -112.02900 | 35965 ft | 374 kts | 251° |
| 2026-04-25 01:06 | 35.98282 | -112.08861 | 35976 ft | 373 kts | 251° |
| 2026-04-25 01:06 | 35.96373 | -112.14809 | 35975 ft | 373 kts | 251° |
| 2026-04-25 01:07 | 35.94458 | -112.20759 | 35972 ft | 374 kts | 251° |
| 2026-04-25 01:07 | 35.92533 | -112.26725 | 35973 ft | 375 kts | 251° |
| 2026-04-25 01:08 | 35.90598 | -112.32709 | 35944 ft | 376 kts | 251° |
| 2026-04-25 01:08 | 35.88657 | -112.38700 | 35920 ft | 377 kts | 251° |
| 2026-04-25 01:09 | 35.86709 | -112.44702 | 35896 ft | 377 kts | 251° |
| 2026-04-25 01:09 | 35.84754 | -112.50711 | 35869 ft | 378 kts | 251° |
| 2026-04-25 01:10 | 35.82807 | -112.56686 | 35848 ft | 378 kts | 251° |
| 2026-04-25 01:10 | 35.80842 | -112.62701 | 35846 ft | 378 kts | 251° |
| 2026-04-25 01:11 | 35.78874 | -112.68714 | 35839 ft | 378 kts | 251° |
| 2026-04-25 01:11 | 35.76904 | -112.74724 | 35836 ft | 379 kts | 251° |
| 2026-04-25 01:12 | 35.74928 | -112.80737 | 35838 ft | 379 kts | 250° |
| 2026-04-25 01:12 | 35.72949 | -112.86747 | 35837 ft | 379 kts | 250° |
| 2026-04-25 01:13 | 35.70966 | -112.92759 | 35839 ft | 379 kts | 250° |
| 2026-04-25 01:13 | 35.68993 | -112.98729 | 35836 ft | 379 kts | 250° |
| 2026-04-25 01:14 | 35.66999 | -113.04751 | 35825 ft | 380 kts | 250° |
| 2026-04-25 01:14 | 35.65004 | -113.10763 | 35823 ft | 379 kts | 250° |
| 2026-04-25 01:15 | 35.63008 | -113.16771 | 35816 ft | 379 kts | 250° |
| 2026-04-25 01:15 | 35.61008 | -113.22774 | 35815 ft | 379 kts | 250° |
| 2026-04-25 01:16 | 35.59002 | -113.28766 | 35805 ft | 379 kts | 250° |
| 2026-04-25 01:16 | 35.57005 | -113.34718 | 35795 ft | 379 kts | 250° |
| 2026-04-25 01:17 | 35.54994 | -113.40704 | 35796 ft | 379 kts | 250° |
| 2026-04-25 01:17 | 35.52980 | -113.46689 | 35782 ft | 380 kts | 250° |
| 2026-04-25 01:18 | 35.50958 | -113.52686 | 35782 ft | 380 kts | 250° |
| 2026-04-25 01:18 | 35.48931 | -113.58686 | 35772 ft | 381 kts | 250° |
| 2026-04-25 01:19 | 35.46899 | -113.64688 | 35787 ft | 381 kts | 250° |
| 2026-04-25 01:19 | 35.44862 | -113.70695 | 35804 ft | 381 kts | 250° |
| 2026-04-25 01:20 | 35.42834 | -113.76663 | 35812 ft | 382 kts | 250° |
| 2026-04-25 01:20 | 35.40787 | -113.82673 | 35836 ft | 382 kts | 250° |
| 2026-04-25 01:21 | 35.38738 | -113.88679 | 35847 ft | 382 kts | 250° |
| 2026-04-25 01:21 | 35.36688 | -113.94678 | 35858 ft | 381 kts | 250° |
| 2026-04-25 01:22 | 35.34635 | -114.00670 | 35869 ft | 381 kts | 250° |
| 2026-04-25 01:22 | 35.32582 | -114.06655 | 35850 ft | 381 kts | 250° |
| 2026-04-25 01:23 | 35.30548 | -114.12568 | 35855 ft | 378 kts | 250° |
| 2026-04-25 01:23 | 35.28503 | -114.18508 | 35812 ft | 379 kts | 250° |
| 2026-04-25 01:24 | 35.26450 | -114.24456 | 35798 ft | 380 kts | 250° |
| 2026-04-25 01:24 | 35.24391 | -114.30410 | 35730 ft | 380 kts | 250° |
| 2026-04-25 01:25 | 35.22331 | -114.36358 | 35726 ft | 380 kts | 250° |
| 2026-04-25 01:25 | 35.20266 | -114.42307 | 35718 ft | 380 kts | 250° |
| 2026-04-25 01:26 | 35.18198 | -114.48253 | 35722 ft | 380 kts | 250° |
| 2026-04-25 01:26 | 35.16127 | -114.54199 | 35724 ft | 380 kts | 250° |
| 2026-04-25 01:27 | 35.14050 | -114.60150 | 35712 ft | 380 kts | 250° |
| 2026-04-25 01:27 | 35.11983 | -114.66084 | 35729 ft | 380 kts | 250° |
| 2026-04-25 01:28 | 35.08906 | -114.74962 | 35716 ft | 380 kts | 250° |
| 2026-04-25 01:28 | 35.06845 | -114.80896 | 35735 ft | 379 kts | 250° |
| 2026-04-25 01:29 | 35.04779 | -114.86832 | 35729 ft | 380 kts | 250° |
| 2026-04-25 01:29 | 35.02630 | -114.92722 | 35737 ft | 382 kts | 246° |
| 2026-04-25 01:30 | 35.00142 | -114.98457 | 35747 ft | 382 kts | 245° |
| 2026-04-25 01:30 | 34.97614 | -115.04161 | 35755 ft | 382 kts | 246° |
| 2026-04-25 01:31 | 34.95112 | -115.09876 | 35755 ft | 382 kts | 246° |
| 2026-04-25 01:31 | 34.92623 | -115.15593 | 35759 ft | 382 kts | 246° |
| 2026-04-25 01:32 | 34.90131 | -115.21320 | 35760 ft | 383 kts | 246° |
| 2026-04-25 01:32 | 34.87634 | -115.27051 | 35756 ft | 383 kts | 246° |
| 2026-04-25 01:33 | 34.85138 | -115.32768 | 35757 ft | 383 kts | 246° |
| 2026-04-25 01:33 | 34.82649 | -115.38462 | 35756 ft | 383 kts | 246° |
| 2026-04-25 01:34 | 34.80145 | -115.44178 | 35760 ft | 383 kts | 245° |
| 2026-04-25 01:34 | 34.77791 | -115.49972 | 35743 ft | 381 kts | 249° |
| 2026-04-25 01:35 | 34.75664 | -115.55870 | 35737 ft | 381 kts | 249° |
| 2026-04-25 01:35 | 34.73534 | -115.61760 | 35728 ft | 381 kts | 249° |
| 2026-04-25 01:36 | 34.71376 | -115.67643 | 35730 ft | 381 kts | 249° |
| 2026-04-25 01:36 | 34.69205 | -115.73523 | 35737 ft | 381 kts | 249° |
| 2026-04-25 01:37 | 34.68126 | -115.76436 | 35583 ft | 374 kts | 249° |
| 2026-04-25 01:37 | 34.67067 | -115.79294 | 35018 ft | 370 kts | 249° |
| 2026-04-25 01:37 | 34.66006 | -115.82161 | 34251 ft | 374 kts | 248° |
| 2026-04-25 01:37 | 34.64934 | -115.85056 | 33391 ft | 378 kts | 248° |
| 2026-04-25 01:38 | 34.63845 | -115.87990 | 32377 ft | 384 kts | 248° |
| 2026-04-25 01:38 | 34.62751 | -115.90941 | 31317 ft | 391 kts | 248° |
| 2026-04-25 01:38 | 34.61630 | -115.93981 | 30298 ft | 398 kts | 248° |
| 2026-04-25 01:38 | 34.60512 | -115.97010 | 30100 ft | 388 kts | 249° |
| 2026-04-25 01:39 | 34.59421 | -115.99966 | 29960 ft | 377 kts | 249° |
| 2026-04-25 01:39 | 34.58359 | -116.02837 | 29839 ft | 371 kts | 249° |
| 2026-04-25 01:39 | 34.56255 | -116.08536 | 29777 ft | 368 kts | 249° |
| 2026-04-25 01:40 | 34.54147 | -116.14242 | 29806 ft | 377 kts | 249° |
| 2026-04-25 01:40 | 34.52009 | -116.20007 | 29807 ft | 369 kts | 249° |
| 2026-04-25 01:41 | 34.50279 | -116.24655 | 29366 ft | 358 kts | 249° |
| 2026-04-25 01:41 | 34.49252 | -116.27417 | 28567 ft | 361 kts | 249° |
| 2026-04-25 01:41 | 34.47870 | -116.31136 | 27232 ft | 370 kts | 249° |
| 2026-04-25 01:42 | 34.47150 | -116.33074 | 26522 ft | 375 kts | 249° |
| 2026-04-25 01:42 | 34.46067 | -116.35982 | 25529 ft | 382 kts | 249° |
| 2026-04-25 01:42 | 34.44966 | -116.38930 | 24727 ft | 384 kts | 248° |
| 2026-04-25 01:42 | 34.43873 | -116.41854 | 24171 ft | 379 kts | 249° |
| 2026-04-25 01:43 | 34.42804 | -116.44709 | 23974 ft | 375 kts | 248° |
| 2026-04-25 01:43 | 34.41748 | -116.47524 | 23847 ft | 359 kts | 249° |
| 2026-04-25 01:43 | 34.40701 | -116.50200 | 23790 ft | 346 kts | 247° |
| 2026-04-25 01:43 | 34.39627 | -116.52795 | 23787 ft | 344 kts | 246° |
| 2026-04-25 01:44 | 34.38546 | -116.55382 | 23783 ft | 346 kts | 246° |
| 2026-04-25 01:44 | 34.37461 | -116.57986 | 23785 ft | 346 kts | 247° |
| 2026-04-25 01:44 | 34.36382 | -116.60591 | 23784 ft | 346 kts | 247° |
| 2026-04-25 01:44 | 34.35303 | -116.63203 | 23784 ft | 347 kts | 247° |
| 2026-04-25 01:45 | 34.34226 | -116.65812 | 23785 ft | 347 kts | 247° |
| 2026-04-25 01:45 | 34.33147 | -116.68430 | 23795 ft | 347 kts | 247° |
| 2026-04-25 01:45 | 34.32084 | -116.71058 | 23800 ft | 347 kts | 248° |
| 2026-04-25 01:45 | 34.31034 | -116.73673 | 23787 ft | 343 kts | 247° |
| 2026-04-25 01:46 | 34.30002 | -116.76239 | 23509 ft | 338 kts | 248° |
| 2026-04-25 01:46 | 34.28979 | -116.78791 | 22908 ft | 337 kts | 248° |
| 2026-04-25 01:46 | 34.27963 | -116.81324 | 22239 ft | 340 kts | 248° |
| 2026-04-25 01:46 | 34.26928 | -116.83895 | 21658 ft | 339 kts | 247° |
| 2026-04-25 01:47 | 34.25900 | -116.86446 | 21168 ft | 336 kts | 247° |
| 2026-04-25 01:47 | 34.24877 | -116.88981 | 20686 ft | 334 kts | 247° |
| 2026-04-25 01:47 | 34.23862 | -116.91495 | 20205 ft | 332 kts | 247° |
| 2026-04-25 01:47 | 34.22848 | -116.94005 | 19734 ft | 331 kts | 247° |
| 2026-04-25 01:48 | 34.21838 | -116.96500 | 19261 ft | 329 kts | 246° |
| 2026-04-25 01:48 | 34.20878 | -116.98986 | 19008 ft | 328 kts | 250° |
| 2026-04-25 01:48 | 34.20111 | -117.01620 | 18935 ft | 332 kts | 253° |
| 2026-04-25 01:48 | 34.19438 | -117.04251 | 18736 ft | 325 kts | 253° |
| 2026-04-25 01:49 | 34.18776 | -117.06849 | 18397 ft | 322 kts | 254° |
| 2026-04-25 01:49 | 34.18106 | -117.09398 | 17832 ft | 323 kts | 253° |
| 2026-04-25 01:49 | 34.17414 | -117.11978 | 17326 ft | 323 kts | 253° |
| 2026-04-25 01:49 | 34.16719 | -117.14547 | 16857 ft | 321 kts | 253° |
| 2026-04-25 01:50 | 34.16023 | -117.17095 | 16370 ft | 320 kts | 253° |
| 2026-04-25 01:50 | 34.15321 | -117.19643 | 15888 ft | 320 kts | 252° |
| 2026-04-25 01:50 | 34.14620 | -117.22185 | 15438 ft | 319 kts | 252° |
| 2026-04-25 01:50 | 34.13924 | -117.24714 | 15017 ft | 316 kts | 252° |
| 2026-04-25 01:51 | 34.13239 | -117.27200 | 14846 ft | 306 kts | 252° |
| 2026-04-25 01:51 | 34.12574 | -117.29616 | 14559 ft | 301 kts | 252° |
| 2026-04-25 01:51 | 34.11913 | -117.32013 | 14155 ft | 301 kts | 252° |
| 2026-04-25 01:51 | 34.11245 | -117.34433 | 14069 ft | 308 kts | 252° |
| 2026-04-25 01:52 | 34.10567 | -117.36886 | 14016 ft | 305 kts | 252° |
| 2026-04-25 01:52 | 34.09936 | -117.39315 | 13814 ft | 301 kts | 253° |
| 2026-04-25 01:52 | 34.09340 | -117.41724 | 13401 ft | 299 kts | 254° |
| 2026-04-25 01:52 | 34.08744 | -117.44137 | 12904 ft | 301 kts | 253° |
| 2026-04-25 01:53 | 34.08150 | -117.46525 | 12481 ft | 301 kts | 253° |
| 2026-04-25 01:53 | 34.07538 | -117.48967 | 12063 ft | 300 kts | 253° |
| 2026-04-25 01:53 | 34.06862 | -117.51322 | 11776 ft | 296 kts | 249° |
| 2026-04-25 01:53 | 34.06057 | -117.53581 | 11295 ft | 298 kts | 247° |
| 2026-04-25 01:54 | 34.05205 | -117.55863 | 10837 ft | 299 kts | 246° |
| 2026-04-25 01:54 | 34.04352 | -117.58156 | 10426 ft | 299 kts | 246° |
| 2026-04-25 01:54 | 34.03512 | -117.60449 | 10080 ft | 299 kts | 247° |
| 2026-04-25 01:54 | 34.02667 | -117.62781 | 10040 ft | 302 kts | 247° |
| 2026-04-25 01:55 | 34.01856 | -117.65073 | 10036 ft | 300 kts | 249° |
| 2026-04-25 01:55 | 34.01202 | -117.67444 | 10038 ft | 298 kts | 257° |
| 2026-04-25 01:55 | 34.00861 | -117.69903 | 10051 ft | 298 kts | 263° |
| 2026-04-25 01:55 | 34.00635 | -117.72377 | 9883 ft | 296 kts | 263° |
| 2026-04-25 01:56 | 34.00397 | -117.74824 | 9581 ft | 293 kts | 263° |
| 2026-04-25 01:56 | 34.00137 | -117.77263 | 9132 ft | 294 kts | 262° |
| 2026-04-25 01:56 | 33.99871 | -117.79709 | 8767 ft | 293 kts | 262° |
| 2026-04-25 01:56 | 33.99613 | -117.82102 | 8659 ft | 283 kts | 262° |
| 2026-04-25 01:57 | 33.99130 | -117.86629 | 8416 ft | 264 kts | 262° |
| 2026-04-25 01:57 | 33.98897 | -117.88818 | 8100 ft | 261 kts | 262° |
| 2026-04-25 01:57 | 33.98670 | -117.90956 | 7740 ft | 254 kts | 262° |
| 2026-04-25 01:58 | 33.98448 | -117.93044 | 7413 ft | 248 kts | 262° |
| 2026-04-25 01:58 | 33.98232 | -117.95080 | 7090 ft | 242 kts | 262° |
| 2026-04-25 01:58 | 33.98022 | -117.97072 | 6786 ft | 236 kts | 262° |
| 2026-04-25 01:58 | 33.97818 | -117.99007 | 6471 ft | 230 kts | 262° |
| 2026-04-25 01:59 | 33.97620 | -118.00889 | 6176 ft | 223 kts | 261° |
| 2026-04-25 01:59 | 33.97426 | -118.02723 | 5872 ft | 217 kts | 262° |
| 2026-04-25 01:59 | 33.97238 | -118.04505 | 5573 ft | 212 kts | 262° |
| 2026-04-25 01:59 | 33.97057 | -118.06233 | 5304 ft | 204 kts | 262° |
| 2026-04-25 02:00 | 33.96882 | -118.07895 | 5027 ft | 197 kts | 262° |
| 2026-04-25 02:00 | 33.96715 | -118.09495 | 4789 ft | 189 kts | 261° |
| 2026-04-25 02:00 | 33.96553 | -118.11045 | 4529 ft | 185 kts | 261° |
| 2026-04-25 02:00 | 33.96394 | -118.12566 | 4274 ft | 181 kts | 261° |
| 2026-04-25 02:01 | 33.96242 | -118.14019 | 4085 ft | 170 kts | 261° |
| 2026-04-25 02:01 | 33.96096 | -118.15418 | 3850 ft | 166 kts | 261° |
| 2026-04-25 02:01 | 33.95955 | -118.16769 | 3635 ft | 158 kts | 261° |
| 2026-04-25 02:01 | 33.95818 | -118.18089 | 3421 ft | 156 kts | 261° |
| 2026-04-25 02:02 | 33.95687 | -118.19347 | 3223 ft | 147 kts | 261° |
| 2026-04-25 02:02 | 33.95563 | -118.20546 | 3030 ft | 143 kts | 260° |
| 2026-04-25 02:02 | 33.95439 | -118.21734 | 2845 ft | 143 kts | 261° |
| 2026-04-25 02:02 | 33.95316 | -118.22915 | 2658 ft | 142 kts | 261° |
| 2026-04-25 02:03 | 33.95195 | -118.24083 | 2475 ft | 140 kts | 261° |
| 2026-04-25 02:03 | 33.95076 | -118.25234 | 2287 ft | 137 kts | 261° |
| 2026-04-25 02:03 | 33.94960 | -118.26369 | 2113 ft | 137 kts | 262° |
| 2026-04-25 02:03 | 33.94841 | -118.27516 | 1924 ft | 137 kts | 261° |
| 2026-04-25 02:04 | 33.94725 | -118.28640 | 1736 ft | 135 kts | 261° |
| 2026-04-25 02:04 | 33.94610 | -118.29749 | 1570 ft | 133 kts | 261° |
| 2026-04-25 02:04 | 33.94497 | -118.30856 | 1395 ft | 133 kts | 261° |
| 2026-04-25 02:04 | 33.94381 | -118.31973 | 1221 ft | 134 kts | 262° |
| 2026-04-25 02:05 | 33.94269 | -118.33084 | 1043 ft | 134 kts | 262° |
| 2026-04-25 02:05 | 33.94167 | -118.34199 | 890 ft | 133 kts | 263° |
| 2026-04-25 02:05 | 33.94061 | -118.35308 | 725 ft | 129 kts | 264° |
| 2026-04-25 02:05 | 33.93938 | -118.36394 | 511 ft | 133 kts | 261° |
| 2026-04-25 02:06 | 33.93798 | -118.37459 | 315 ft | 127 kts | 264° |
| 2026-04-25 02:06 | 33.93707 | -118.38497 | 144 ft | 128 kts | 259° |
| 2026-04-25 02:06 | 33.93585 | -118.39577 | 464 ft | 139 kts | 264° |
| 2026-04-25 02:06 | 33.93475 | -118.40690 | 1223 ft | 133 kts | 263° |
| 2026-04-25 02:07 | 33.93355 | -118.41849 | 1833 ft | 140 kts | 262° |
| 2026-04-25 02:07 | 33.93235 | -118.42986 | 2424 ft | 158 kts | 262° |
| 2026-04-25 02:07 | 33.93067 | -118.44508 | 2650 ft | 209 kts | 260° |
| 2026-04-25 02:07 | 33.92591 | -118.46359 | 2638 ft | 244 kts | 249° |
| 2026-04-25 02:08 | 33.91961 | -118.48271 | 2620 ft | 248 kts | 248° |
| 2026-04-25 02:08 | 33.91308 | -118.50192 | 2598 ft | 247 kts | 248° |
| 2026-04-25 02:08 | 33.90673 | -118.52049 | 2595 ft | 232 kts | 248° |
| 2026-04-25 02:08 | 33.89911 | -118.53718 | 2613 ft | 227 kts | 229° |
| 2026-04-25 02:09 | 33.88701 | -118.54957 | 2626 ft | 232 kts | 212° |
| 2026-04-25 02:09 | 33.87169 | -118.55619 | 2962 ft | 242 kts | 185° |
| 2026-04-25 02:09 | 33.85523 | -118.55220 | 3647 ft | 246 kts | 154° |
| 2026-04-25 02:09 | 33.84243 | -118.53863 | 4324 ft | 250 kts | 123° |
| 2026-04-25 02:10 | 33.83660 | -118.51905 | 4834 ft | 253 kts | 95° |
| 2026-04-25 02:10 | 33.83755 | -118.49790 | 5025 ft | 259 kts | 83° |
| 2026-04-25 02:10 | 33.84006 | -118.47621 | 5020 ft | 263 kts | 82° |
| 2026-04-25 02:10 | 33.84276 | -118.45454 | 5012 ft | 260 kts | 82° |
| 2026-04-25 02:11 | 33.84547 | -118.43323 | 5014 ft | 256 kts | 81° |
| 2026-04-25 02:11 | 33.84820 | -118.41206 | 5013 ft | 256 kts | 81° |
| 2026-04-25 02:11 | 33.85093 | -118.39094 | 5023 ft | 256 kts | 81° |
| 2026-04-25 02:11 | 33.85368 | -118.36973 | 5020 ft | 257 kts | 81° |
| 2026-04-25 02:12 | 33.85643 | -118.34852 | 5020 ft | 256 kts | 82° |
| 2026-04-25 02:12 | 33.85919 | -118.32736 | 5025 ft | 256 kts | 81° |
| 2026-04-25 02:12 | 33.86198 | -118.30613 | 5023 ft | 257 kts | 81° |
| 2026-04-25 02:12 | 33.86476 | -118.28494 | 5013 ft | 257 kts | 81° |
| 2026-04-25 02:13 | 33.86754 | -118.26387 | 4954 ft | 251 kts | 82° |
| 2026-04-25 02:13 | 33.87027 | -118.24328 | 4564 ft | 247 kts | 81° |
| 2026-04-25 02:13 | 33.87301 | -118.22291 | 4052 ft | 246 kts | 81° |
| 2026-04-25 02:13 | 33.87574 | -118.20272 | 3710 ft | 241 kts | 82° |
| 2026-04-25 02:14 | 33.87846 | -118.18296 | 3644 ft | 240 kts | 81° |
| 2026-04-25 02:14 | 33.88126 | -118.16292 | 3623 ft | 245 kts | 81° |
| 2026-04-25 02:14 | 33.88413 | -118.14254 | 3626 ft | 249 kts | 81° |
| 2026-04-25 02:14 | 33.88702 | -118.12200 | 3611 ft | 248 kts | 81° |
| 2026-04-25 02:15 | 33.89305 | -118.10289 | 3600 ft | 246 kts | 54° |
| 2026-04-25 02:15 | 33.90618 | -118.09000 | 3622 ft | 249 kts | 22° |
| 2026-04-25 02:15 | 33.92322 | -118.08669 | 3614 ft | 251 kts | 352° |
| 2026-04-25 02:15 | 33.93943 | -118.09369 | 3599 ft | 249 kts | 324° |
| 2026-04-25 02:16 | 33.95070 | -118.10906 | 3620 ft | 246 kts | 296° |
| 2026-04-25 02:16 | 33.95776 | -118.12756 | 3596 ft | 237 kts | 288° |
| 2026-04-25 02:16 | 33.95990 | -118.14638 | 3631 ft | 224 kts | 269° |
| 2026-04-25 02:16 | 33.95942 | -118.16494 | 3573 ft | 220 kts | 265° |
| 2026-04-25 02:17 | 33.95793 | -118.18326 | 3351 ft | 217 kts | 262° |
| 2026-04-25 02:17 | 33.95611 | -118.20087 | 3084 ft | 207 kts | 261° |
| 2026-04-25 02:17 | 33.95437 | -118.21743 | 2818 ft | 191 kts | 261° |
| 2026-04-25 02:17 | 33.95278 | -118.23274 | 2550 ft | 178 kts | 261° |
| 2026-04-25 02:18 | 33.95134 | -118.24670 | 2350 ft | 159 kts | 262° |
| 2026-04-25 02:18 | 33.95007 | -118.25902 | 2165 ft | 138 kts | 261° |
| 2026-04-25 02:18 | 33.94889 | -118.27040 | 1966 ft | 136 kts | 262° |
| 2026-04-25 02:18 | 33.94774 | -118.28154 | 1797 ft | 136 kts | 262° |
| 2026-04-25 02:19 | 33.94657 | -118.29292 | 1627 ft | 134 kts | 261° |
| 2026-04-25 02:19 | 33.94540 | -118.30417 | 1434 ft | 138 kts | 262° |
| 2026-04-25 02:19 | 33.94424 | -118.31560 | 1237 ft | 137 kts | 262° |
| 2026-04-25 02:19 | 33.94309 | -118.32681 | 1050 ft | 133 kts | 262° |
| 2026-04-25 02:20 | 33.94180 | -118.33783 | 861 ft | 132 kts | 260° |
| 2026-04-25 02:20 | 33.94073 | -118.34839 | 670 ft | 122 kts | 264° |
| 2026-04-25 02:20 | 33.94001 | -118.35842 | 493 ft | 128 kts | 263° |
| 2026-04-25 02:20 | 33.93854 | -118.36951 | 420 ft | 126 kts | 262° |
| 2026-04-25 02:21 | 33.93750 | -118.37973 | 256 ft | 118 kts | 264° |
| 2026-04-25 02:21 | 33.93672 | -118.38894 | 123 ft | 105 kts | 265° |
| 2026-04-25 02:21 | 33.93593 | -118.39436 | 123 ft | 37 kts | 266° |
| 2026-04-25 02:21 | 33.93603 | -118.39736 | 123 ft | 31 kts | 279° |
| 2026-04-25 02:22 | 33.93631 | -118.39868 | 123 ft | 2 kts | 287° |
| 2026-04-25 02:22 | 33.93646 | -118.39922 | 123 ft | 4 kts | 288° |
| 2026-04-25 02:22 | 33.93660 | -118.39990 | 125 ft | 12 kts | 278° |
| 2026-04-25 02:22 | 33.93659 | -118.40106 | 125 ft | 18 kts | 263° |
| 2026-04-25 02:23 | 33.93647 | -118.40243 | 124 ft | 12 kts | 266° |
| 2026-04-25 02:23 | 33.93663 | -118.40356 | 122 ft | 14 kts | 301° |
| 2026-04-25 02:23 | 33.93738 | -118.40418 | 121 ft | 12 kts | 343° |
| 2026-04-25 02:23 | 33.93795 | -118.40437 | 123 ft | 13 kts | 341° |
| 2026-04-25 02:24 | 33.93818 | -118.40459 | 122 ft | 0 kts | 301° |
| 2026-04-25 02:24 | 33.93819 | -118.40460 | 122 ft | 1 kts | 298° |
| 2026-04-25 02:25 | 33.93842 | -118.40506 | 123 ft | 12 kts | 317° |
| 2026-04-25 02:25 | 33.93923 | -118.40541 | 124 ft | 14 kts | 351° |
| 2026-04-25 02:25 | 33.93991 | -118.40552 | 123 ft | 7 kts | 353° |
| 2026-04-25 02:25 | 33.94006 | -118.40554 | 122 ft | 0 kts | 353° |
| 2026-04-25 02:26 | 33.94015 | -118.40556 | 123 ft | 4 kts | 343° |
| 2026-04-25 02:26 | 33.94039 | -118.40585 | 122 ft | 7 kts | 295° |
| 2026-04-25 02:26 | 33.94039 | -118.40605 | 122 ft | 0 kts | 267° |
| 2026-04-25 02:27 | 33.94039 | -118.40609 | 122 ft | 0 kts | 268° |